createdAt,value
2023-08-26T00:01:38.393Z,6.50
2023-08-26T00:04:05.310Z,6.63
2023-08-26T00:06:32.301Z,6.53
2023-08-26T00:08:59.152Z,6.47
2023-08-26T00:11:26.024Z,6.65
2023-08-26T00:13:52.766Z,6.97
2023-08-26T00:16:19.565Z,6.53
2023-08-26T00:18:48.300Z,6.90
2023-08-26T00:21:16.327Z,6.93
2023-08-26T00:23:43.325Z,6.88
2023-08-26T00:26:12.346Z,7.18
2023-08-26T00:28:39.147Z,7.35
2023-08-26T00:31:06.505Z,7.63
2023-08-26T00:33:33.184Z,8.30
2023-08-26T00:36:00.503Z,8.90
2023-08-26T00:38:28.933Z,10.20
2023-08-26T00:40:56.218Z,8.70
2023-08-26T00:43:23.364Z,6.70
2023-08-26T00:45:54.473Z,6.32
2023-08-26T00:48:21.579Z,7.68
2023-08-26T00:50:51.558Z,7.43
2023-08-26T00:53:18.450Z,6.68
2023-08-26T00:55:45.374Z,6.50
2023-08-26T00:58:12.580Z,5.25
2023-08-26T01:00:40.870Z,4.95
2023-08-26T01:03:08.279Z,4.30
2023-08-26T01:05:35.266Z,4.65
2023-08-26T01:08:06.678Z,4.72
2023-08-26T01:11:07.609Z,5.13
2023-08-26T01:13:45.801Z,5.47
2023-08-26T01:16:15.155Z,6.18
2023-08-26T01:18:43.223Z,6.20
2023-08-26T01:21:13.756Z,6.70
2023-08-26T01:23:43.349Z,5.85
2023-08-26T01:26:10.164Z,5.45
2023-08-26T01:28:37.830Z,4.80
2023-08-26T01:31:10.792Z,5.50
2023-08-26T01:34:06.212Z,5.40
2023-08-26T01:36:37.760Z,5.80
2023-08-26T01:39:06.078Z,5.97
2023-08-26T01:41:33.290Z,6.05
2023-08-26T01:44:00.490Z,6.18
2023-08-26T01:46:40.222Z,6.40
2023-08-26T01:49:07.097Z,5.65
2023-08-26T01:51:34.764Z,6.22
2023-08-26T01:54:06.377Z,6.35
2023-08-26T01:56:33.913Z,6.82
2023-08-26T01:59:00.725Z,5.90
2023-08-26T02:01:27.789Z,5.88
2023-08-26T02:03:55.122Z,5.90
2023-08-26T02:06:22.176Z,5.32
2023-08-26T02:08:48.811Z,5.65
2023-08-26T02:11:15.613Z,5.65
2023-08-26T02:13:42.872Z,5.55
2023-08-26T02:16:09.656Z,6.10
2023-08-26T02:18:36.589Z,5.97
2023-08-26T02:21:03.417Z,6.35
2023-08-26T02:23:30.265Z,6.00
2023-08-26T02:25:57.201Z,6.65
2023-08-26T02:28:24.225Z,5.90
2023-08-26T02:30:51.179Z,6.55
2023-08-26T02:33:17.882Z,6.60
2023-08-26T02:35:47.989Z,5.65
2023-08-26T02:38:15.663Z,5.90
2023-08-26T02:40:42.468Z,6.18
2023-08-26T02:43:10.055Z,6.55
2023-08-26T02:45:37.086Z,5.80
2023-08-26T02:48:04.325Z,6.90
2023-08-26T02:50:31.504Z,5.65
2023-08-26T02:52:58.601Z,5.55
2023-08-26T02:55:25.253Z,6.32
2023-08-26T02:57:51.934Z,6.35
2023-08-26T03:00:18.570Z,6.15
2023-08-26T03:02:45.488Z,6.15
2023-08-26T03:05:12.238Z,5.57
2023-08-26T03:07:38.969Z,5.80
2023-08-26T03:10:06.139Z,5.95
2023-08-26T03:12:33.877Z,5.50
2023-08-26T03:15:00.528Z,5.40
2023-08-26T03:17:27.356Z,5.35
2023-08-26T03:19:54.295Z,5.63
2023-08-26T03:22:20.988Z,5.63
2023-08-26T03:24:47.840Z,5.72
2023-08-26T03:27:15.592Z,6.35
2023-08-26T03:29:42.420Z,6.55
2023-08-26T03:32:09.328Z,5.63
2023-08-26T03:34:35.934Z,6.07
2023-08-26T03:37:03.120Z,5.45
2023-08-26T03:39:31.100Z,6.03
2023-08-26T03:41:57.773Z,5.10
2023-08-26T03:44:24.416Z,5.20
2023-08-26T03:46:51.254Z,5.70
2023-08-26T03:49:17.917Z,5.60
2023-08-26T03:51:44.866Z,5.55
2023-08-26T03:54:12.239Z,6.45
2023-08-26T03:56:39.109Z,5.80
2023-08-26T03:59:05.781Z,6.13
2023-08-26T04:01:32.571Z,6.10
2023-08-26T04:03:59.382Z,6.20
2023-08-26T04:06:26.428Z,6.47
2023-08-26T04:08:53.225Z,5.65
2023-08-26T04:11:20.429Z,5.63
2023-08-26T04:13:47.287Z,5.65
2023-08-26T04:16:16.855Z,5.72
2023-08-26T04:18:46.541Z,6.05
2023-08-26T04:21:13.575Z,5.95
2023-08-26T04:23:40.494Z,5.63
2023-08-26T04:26:07.309Z,5.70
2023-08-26T04:28:34.047Z,6.50
2023-08-26T04:31:01.482Z,5.38
2023-08-26T04:33:28.421Z,5.05
2023-08-26T04:35:55.185Z,5.97
2023-08-26T04:38:22.046Z,5.70
2023-08-26T04:40:48.738Z,5.63
2023-08-26T04:43:15.393Z,5.13
2023-08-26T04:45:42.313Z,5.68
2023-08-26T04:48:10.424Z,5.57
2023-08-26T04:50:38.026Z,5.88
2023-08-26T04:53:05.277Z,5.80
2023-08-26T04:55:34.006Z,5.00
2023-08-26T04:58:02.755Z,4.85
2023-08-26T05:00:29.982Z,5.32
2023-08-26T05:02:56.830Z,5.05
2023-08-26T05:05:23.562Z,5.25
2023-08-26T05:07:50.426Z,4.95
2023-08-26T05:10:17.128Z,4.75
2023-08-26T05:12:43.886Z,4.55
2023-08-26T05:15:10.781Z,4.85
2023-08-26T05:17:37.479Z,4.95
2023-08-26T05:20:05.444Z,5.05
2023-08-26T05:22:32.274Z,5.15
2023-08-26T05:24:59.077Z,5.18
2023-08-26T05:27:27.976Z,5.78
2023-08-26T05:29:55.900Z,4.95
2023-08-26T05:32:23.448Z,5.25
2023-08-26T05:34:50.108Z,4.95
2023-08-26T05:37:18.442Z,6.00
2023-08-26T05:39:45.122Z,5.38
2023-08-26T05:42:11.938Z,5.30
2023-08-26T05:44:39.368Z,6.15
2023-08-26T05:47:07.396Z,5.25
2023-08-26T05:49:34.092Z,4.70
2023-08-26T05:52:00.894Z,5.05
2023-08-26T05:54:27.763Z,6.05
2023-08-26T05:56:54.853Z,5.10
2023-08-26T05:59:21.590Z,5.22
2023-08-26T06:01:48.407Z,5.55
2023-08-26T06:04:15.143Z,4.95
2023-08-26T06:06:42.674Z,5.05
2023-08-26T06:09:10.644Z,5.82
2023-08-26T06:11:39.292Z,5.72
2023-08-26T06:14:06.500Z,4.80
2023-08-26T06:16:33.975Z,5.32
2023-08-26T06:19:00.656Z,5.88
2023-08-26T06:21:27.419Z,5.95
2023-08-26T06:23:54.496Z,6.20
2023-08-26T06:26:21.259Z,6.15
2023-08-26T06:28:47.963Z,7.25
2023-08-26T06:31:14.734Z,6.07
2023-08-26T06:33:44.853Z,5.80
2023-08-26T06:36:11.637Z,5.25
2023-08-26T06:38:38.348Z,6.60
2023-08-26T06:41:05.103Z,6.00
2023-08-26T06:43:31.889Z,6.43
2023-08-26T06:46:00.102Z,6.30
2023-08-26T06:48:28.715Z,6.07
2023-08-26T06:50:55.719Z,6.63
2023-08-26T06:53:22.575Z,6.20
2023-08-26T06:55:51.886Z,7.18
2023-08-26T06:58:20.885Z,5.85
2023-08-26T07:00:48.331Z,6.80
2023-08-26T07:03:15.065Z,6.60
2023-08-26T07:05:46.815Z,5.40
2023-08-26T07:08:16.876Z,5.22
2023-08-26T07:10:46.000Z,5.47
2023-08-26T07:13:13.812Z,5.35
2023-08-26T07:15:40.761Z,5.57
2023-08-26T07:18:07.791Z,5.47
2023-08-26T07:20:34.655Z,5.03
2023-08-26T07:23:01.315Z,5.43
2023-08-26T07:25:28.160Z,4.90
2023-08-26T07:27:55.040Z,5.63
2023-08-26T07:30:22.312Z,5.07
2023-08-26T07:32:48.990Z,4.68
2023-08-26T07:35:15.820Z,4.85
2023-08-26T07:37:42.435Z,5.03
2023-08-26T07:40:15.062Z,5.10
2023-08-26T07:42:43.108Z,4.97
2023-08-26T07:45:10.596Z,5.38
2023-08-26T07:50:07.898Z,4.75
2023-08-26T07:52:34.662Z,4.90
2023-08-26T07:55:01.331Z,4.78
2023-08-26T07:57:28.072Z,4.82
2023-08-26T07:59:55.104Z,4.97
2023-08-26T08:02:21.749Z,5.13
2023-08-26T08:04:49.120Z,5.05
2023-08-26T08:07:15.756Z,5.22
2023-08-26T08:09:42.519Z,5.68
2023-08-26T08:12:10.620Z,5.07
2023-08-26T08:14:37.680Z,4.72
2023-08-26T08:17:04.785Z,4.88
2023-08-26T08:19:31.776Z,4.80
2023-08-26T08:21:58.519Z,4.85
2023-08-26T08:24:25.378Z,4.53
2023-08-26T08:26:52.139Z,4.82
2023-08-26T08:29:19.217Z,5.00
2023-08-26T08:31:45.936Z,5.63
2023-08-26T08:34:12.697Z,5.55
2023-08-26T08:36:39.306Z,5.10
2023-08-26T08:39:07.378Z,4.78
2023-08-26T08:41:38.941Z,5.68
2023-08-26T08:44:14.829Z,4.97
2023-08-26T08:46:42.203Z,5.25
2023-08-26T08:49:09.763Z,4.65
2023-08-26T08:51:37.824Z,5.53
2023-08-26T08:54:06.317Z,5.60
2023-08-26T08:56:36.100Z,5.05
2023-08-26T08:59:03.462Z,5.15
2023-08-26T09:01:31.964Z,4.88
2023-08-26T09:03:58.752Z,5.13
2023-08-26T09:06:25.604Z,5.25
2023-08-26T09:08:52.701Z,4.93
2023-08-26T09:11:19.412Z,4.90
2023-08-26T09:13:46.649Z,6.13
2023-08-26T09:16:13.572Z,5.53
2023-08-26T09:18:40.771Z,5.07
2023-08-26T09:21:11.651Z,5.28
2023-08-26T09:23:43.165Z,5.15
2023-08-26T09:26:11.493Z,4.78
2023-08-26T09:28:38.795Z,5.93
2023-08-26T09:31:08.978Z,6.32
2023-08-26T09:33:35.872Z,5.50
2023-08-26T09:38:48.377Z,5.50
2023-08-26T09:41:20.749Z,5.65
2023-08-26T09:43:48.458Z,5.38
2023-08-26T09:46:22.111Z,6.13
2023-08-26T09:48:49.931Z,6.30
2023-08-26T09:51:29.323Z,5.88
2023-08-26T09:53:56.347Z,6.20
2023-08-26T09:56:25.107Z,6.05
2023-08-26T09:58:53.129Z,6.60
2023-08-26T10:01:24.233Z,5.80
2023-08-26T10:03:54.751Z,6.53
2023-08-26T10:06:26.730Z,6.28
2023-08-26T10:09:01.350Z,6.05
2023-08-26T10:11:30.244Z,6.32
2023-08-26T10:13:59.698Z,6.43
2023-08-26T10:16:35.630Z,6.57
2023-08-26T10:19:04.918Z,5.93
2023-08-26T10:21:33.433Z,6.60
2023-08-26T10:24:01.290Z,7.15
2023-08-26T10:26:28.419Z,6.40
2023-08-26T10:28:58.931Z,6.85
2023-08-26T10:31:37.226Z,7.10
2023-08-26T10:34:06.981Z,7.03
2023-08-26T10:36:40.886Z,7.32
2023-08-26T10:39:16.709Z,7.22
2023-08-26T10:42:19.846Z,7.03
2023-08-26T10:44:57.915Z,6.60
2023-08-26T10:47:39.706Z,6.65
2023-08-26T10:50:23.813Z,6.65
2023-08-26T10:52:53.440Z,6.43
2023-08-26T10:55:26.299Z,7.15
2023-08-26T10:58:08.269Z,7.55
2023-08-26T11:00:36.369Z,7.25
2023-08-26T11:03:04.441Z,7.25
2023-08-26T11:05:31.886Z,7.95
2023-08-26T11:07:58.955Z,8.25
2023-08-26T11:10:30.951Z,7.55
2023-08-26T11:12:58.359Z,8.23
2023-08-26T11:15:25.398Z,7.40
2023-08-26T11:17:52.512Z,7.57
2023-08-26T11:20:19.699Z,7.32
2023-08-26T11:22:47.005Z,7.57
2023-08-26T11:25:17.766Z,7.65
2023-08-26T11:27:44.859Z,7.45
2023-08-26T11:30:12.388Z,6.90
2023-08-26T11:32:40.672Z,6.93
2023-08-26T11:35:09.708Z,6.50
2023-08-26T11:37:48.143Z,7.00
2023-08-26T11:40:16.853Z,7.57
2023-08-26T11:42:48.769Z,7.20
2023-08-26T11:45:15.426Z,8.40
2023-08-26T11:47:42.419Z,8.55
2023-08-26T11:50:12.754Z,7.25
2023-08-26T11:52:40.941Z,8.85
2023-08-26T11:55:09.902Z,8.25
2023-08-26T11:57:39.049Z,8.27
2023-08-26T12:00:18.043Z,7.82
2023-08-26T12:02:49.431Z,8.05
2023-08-26T12:05:17.184Z,7.63
2023-08-26T12:07:48.980Z,7.28
2023-08-26T12:10:19.302Z,7.97
2023-08-26T12:12:47.708Z,7.28
2023-08-26T12:15:20.476Z,7.65
2023-08-26T12:17:52.508Z,7.32
2023-08-26T12:20:27.280Z,7.82
2023-08-26T12:22:55.646Z,7.63
2023-08-26T12:25:27.611Z,8.30
2023-08-26T12:28:04.896Z,8.60
2023-08-26T12:30:31.609Z,7.72
2023-08-26T12:32:58.335Z,8.95
2023-08-26T12:35:25.102Z,8.00
2023-08-26T12:37:51.823Z,7.82
2023-08-26T12:40:18.550Z,7.97
2023-08-26T12:42:45.185Z,8.73
2023-08-26T12:45:12.005Z,8.43
2023-08-26T12:47:38.810Z,8.68
2023-08-26T12:50:06.110Z,8.73
2023-08-26T12:52:32.836Z,8.60
2023-08-26T12:54:59.563Z,8.25
2023-08-26T12:57:26.212Z,8.45
2023-08-26T12:59:52.992Z,8.63
2023-08-26T13:02:19.700Z,7.75
2023-08-26T13:04:46.546Z,8.05
2023-08-26T13:07:13.362Z,8.30
2023-08-26T13:09:40.500Z,8.70
2023-08-26T13:12:07.647Z,10.20
2023-08-26T13:14:34.553Z,8.98
2023-08-26T13:17:01.253Z,8.85
2023-08-26T13:19:27.961Z,8.30
2023-08-26T13:21:54.882Z,8.55
2023-08-26T13:24:21.608Z,8.43
2023-08-26T13:26:48.388Z,9.15
2023-08-26T13:29:15.237Z,9.60
2023-08-26T13:31:41.971Z,8.93
2023-08-26T13:34:08.751Z,8.77
2023-08-26T13:36:50.371Z,8.73
2023-08-26T13:39:17.971Z,8.57
2023-08-26T13:41:44.714Z,9.00
2023-08-26T13:44:11.491Z,9.25
2023-08-26T13:46:38.230Z,10.52
2023-08-26T13:49:05.026Z,7.88
2023-08-26T13:51:31.706Z,8.35
2023-08-26T13:54:00.231Z,6.35
2023-08-26T13:56:27.476Z,3.95
2023-08-26T13:58:54.185Z,4.93
2023-08-26T14:01:21.031Z,9.40
2023-08-26T14:03:47.821Z,10.75
2023-08-26T14:06:14.501Z,10.82
2023-08-26T14:08:41.214Z,10.00
2023-08-26T14:11:08.489Z,9.00
2023-08-26T14:13:35.436Z,10.13
2023-08-26T14:16:02.093Z,8.65
2023-08-26T14:18:28.846Z,8.75
2023-08-26T14:20:55.584Z,8.98
2023-08-26T14:23:22.399Z,9.07
2023-08-26T14:25:49.524Z,8.65
2023-08-26T14:28:16.909Z,10.40
2023-08-26T14:30:43.542Z,8.85
2023-08-26T14:33:10.456Z,10.25
2023-08-26T14:35:37.114Z,10.68
2023-08-26T14:38:04.675Z,10.10
2023-08-26T14:40:31.787Z,10.30
2023-08-26T14:42:58.744Z,10.05
2023-08-26T14:45:26.360Z,9.52
2023-08-26T14:47:53.174Z,18.45
2023-08-26T14:50:19.913Z,26.27
2023-08-26T14:52:46.993Z,15.90
2023-08-26T14:55:14.144Z,16.95
2023-08-26T14:57:41.122Z,15.32
2023-08-26T15:00:11.086Z,10.52
2023-08-26T15:02:38.409Z,9.00
2023-08-26T15:05:05.555Z,8.85
2023-08-26T15:07:32.575Z,9.68
2023-08-26T15:10:00.320Z,9.02
2023-08-26T15:12:28.903Z,11.05
2023-08-26T15:14:56.627Z,10.45
2023-08-26T15:17:24.788Z,10.43
2023-08-26T15:19:52.806Z,8.23
2023-08-26T15:22:20.446Z,8.68
2023-08-26T15:24:47.090Z,8.15
2023-08-26T15:27:13.775Z,7.47
2023-08-26T15:29:40.414Z,7.93
2023-08-26T15:32:07.258Z,7.60
2023-08-26T15:34:33.980Z,7.43
2023-08-26T15:37:00.725Z,7.75
2023-08-26T15:39:27.404Z,8.30
2023-08-26T15:41:54.127Z,8.45
2023-08-26T15:44:20.892Z,9.02
2023-08-26T15:46:47.654Z,7.95
2023-08-26T15:49:14.281Z,8.13
2023-08-26T15:51:41.044Z,8.50
2023-08-26T15:54:08.128Z,8.27
2023-08-26T15:56:34.806Z,8.18
2023-08-26T15:59:01.445Z,7.78
2023-08-26T16:01:30.249Z,8.02
2023-08-26T16:03:57.399Z,8.70
2023-08-26T16:06:24.275Z,8.63
2023-08-26T16:08:51.730Z,7.68
2023-08-26T16:11:18.605Z,7.68
2023-08-26T16:13:45.712Z,7.47
2023-08-26T16:16:12.619Z,7.72
2023-08-26T16:18:39.653Z,8.35
2023-08-26T16:21:09.259Z,7.85
2023-08-26T16:23:37.106Z,7.65
2023-08-26T16:26:03.749Z,7.85
2023-08-26T16:28:30.507Z,7.78
2023-08-26T16:30:57.746Z,7.97
2023-08-26T16:33:24.662Z,8.00
2023-08-26T16:35:51.810Z,7.47
2023-08-26T16:38:20.649Z,7.10
2023-08-26T16:40:52.034Z,7.22
2023-08-26T16:43:18.762Z,7.50
2023-08-26T16:45:47.307Z,7.05
2023-08-26T16:48:14.133Z,7.03
2023-08-26T16:50:42.530Z,6.68
2023-08-26T16:53:09.637Z,10.38
2023-08-26T16:55:36.972Z,9.00
2023-08-26T16:58:03.885Z,7.60
2023-08-26T17:00:30.674Z,12.75
2023-08-26T17:02:57.640Z,11.85
2023-08-26T17:05:24.787Z,11.23
2023-08-26T17:07:51.663Z,9.20
2023-08-26T17:10:18.423Z,8.10
2023-08-26T17:12:46.910Z,8.43
2023-08-26T17:15:13.843Z,8.00
2023-08-26T17:17:40.635Z,8.00
2023-08-26T17:20:07.973Z,8.82
2023-08-26T17:22:35.312Z,8.55
2023-08-26T17:25:02.012Z,8.90
2023-08-26T17:27:33.054Z,8.30
2023-08-26T17:29:59.846Z,8.57
2023-08-26T17:32:26.663Z,8.40
2023-08-26T17:34:53.481Z,8.75
2023-08-26T17:37:20.938Z,8.70
2023-08-26T17:39:47.823Z,8.43
2023-08-26T17:42:14.545Z,7.10
2023-08-26T17:44:41.316Z,7.55
2023-08-26T17:47:08.066Z,8.70
2023-08-26T17:49:34.779Z,7.97
2023-08-26T17:52:01.480Z,8.20
2023-08-26T17:54:28.248Z,8.93
2023-08-26T17:56:54.991Z,8.57
2023-08-26T17:59:21.762Z,7.75
2023-08-26T18:01:48.413Z,8.45
2023-08-26T18:04:15.198Z,8.18
2023-08-26T18:06:42.639Z,7.63
2023-08-26T18:09:11.086Z,8.20
2023-08-26T18:11:37.744Z,8.10
2023-08-26T18:14:04.828Z,8.25
2023-08-26T18:16:31.824Z,7.47
2023-08-26T18:18:58.531Z,7.32
2023-08-26T18:21:25.261Z,6.82
2023-08-26T18:23:52.024Z,6.97
2023-08-26T18:26:18.647Z,6.85
2023-08-26T18:28:45.380Z,7.05
2023-08-26T18:31:12.044Z,6.75
2023-08-26T18:33:38.785Z,6.80
2023-08-26T18:36:06.012Z,6.88
2023-08-26T18:38:32.707Z,6.38
2023-08-26T18:41:00.688Z,5.88
2023-08-26T18:43:27.838Z,6.40
2023-08-26T18:45:56.289Z,5.97
2023-08-26T18:48:22.969Z,6.30
2023-08-26T18:51:00.659Z,6.07
2023-08-26T18:53:27.922Z,6.45
2023-08-26T18:55:55.441Z,6.13
2023-08-26T18:58:25.605Z,6.55
2023-08-26T19:00:55.700Z,5.97
2023-08-26T19:03:22.741Z,5.75
2023-08-26T19:05:51.020Z,5.75
2023-08-26T19:08:18.541Z,6.13
2023-08-26T19:10:47.027Z,6.30
2023-08-26T19:13:14.133Z,5.95
2023-08-26T19:15:41.980Z,5.68
2023-08-26T19:18:09.711Z,6.22
2023-08-26T19:20:39.866Z,5.70
2023-08-26T19:23:07.304Z,5.65
2023-08-26T19:25:35.645Z,6.30
2023-08-26T19:28:02.567Z,7.30
2023-08-26T19:30:29.193Z,7.10
2023-08-26T19:32:56.831Z,6.07
2023-08-26T19:35:24.656Z,6.47
2023-08-26T19:37:51.501Z,5.72
2023-08-26T19:40:18.553Z,6.40
2023-08-26T19:42:45.332Z,6.28
2023-08-26T19:45:12.147Z,6.65
2023-08-26T19:47:39.429Z,5.60
2023-08-26T19:50:06.655Z,5.30
2023-08-26T19:52:34.520Z,6.10
2023-08-26T19:55:05.413Z,5.53
2023-08-26T19:57:32.223Z,5.65
2023-08-26T19:59:59.704Z,5.93
2023-08-26T20:02:26.815Z,6.28
2023-08-26T20:04:53.601Z,6.30
2023-08-26T20:07:20.516Z,6.07
2023-08-26T20:09:47.290Z,5.80
2023-08-26T20:12:14.214Z,6.32
2023-08-26T20:14:41.698Z,5.43
2023-08-26T20:17:09.872Z,6.00
2023-08-26T20:19:38.459Z,5.95
2023-08-26T20:22:06.285Z,5.75
2023-08-26T20:24:33.037Z,6.22
2023-08-26T20:27:00.004Z,6.30
2023-08-26T20:29:26.651Z,7.60
2023-08-26T20:31:54.136Z,7.57
2023-08-26T20:34:20.885Z,6.78
2023-08-26T20:36:49.294Z,6.95
2023-08-26T20:39:16.299Z,7.22
2023-08-26T20:41:43.609Z,6.43
2023-08-26T20:44:10.417Z,7.15
2023-08-26T20:46:37.468Z,8.25
2023-08-26T20:49:04.279Z,8.18
2023-08-26T20:51:31.778Z,9.40
2023-08-26T20:53:58.680Z,7.28
2023-08-26T20:56:27.187Z,7.55
2023-08-26T20:58:57.412Z,7.10
2023-08-26T21:01:25.711Z,6.82
2023-08-26T21:03:53.275Z,7.97
2023-08-26T21:06:20.572Z,7.43
2023-08-26T21:08:47.277Z,7.55
2023-08-26T21:11:14.025Z,8.43
2023-08-26T21:13:41.380Z,9.27
2023-08-26T21:16:08.504Z,8.25
2023-08-26T21:18:35.768Z,8.40
2023-08-26T21:21:03.871Z,8.23
2023-08-26T21:23:30.718Z,7.22
2023-08-26T21:25:57.704Z,6.90
2023-08-26T21:28:27.729Z,6.68
2023-08-26T21:30:55.110Z,6.03
2023-08-26T21:33:23.060Z,6.68
2023-08-26T21:35:50.624Z,6.50
2023-08-26T21:38:17.392Z,6.28
2023-08-26T21:40:44.590Z,6.80
2023-08-26T21:43:14.349Z,6.18
2023-08-26T21:45:41.422Z,6.50
2023-08-26T21:48:08.493Z,7.25
2023-08-26T21:50:43.013Z,7.25
2023-08-26T21:53:09.760Z,6.93
2023-08-26T21:55:36.540Z,6.45
2023-08-26T21:58:07.817Z,6.63
2023-08-26T22:00:35.718Z,6.50
2023-08-26T22:03:03.524Z,6.32
2023-08-26T22:05:32.901Z,6.93
2023-08-26T22:08:00.504Z,7.03
2023-08-26T22:10:27.595Z,6.60
2023-08-26T22:12:55.812Z,6.57
2023-08-26T22:15:23.941Z,8.18
2023-08-26T22:17:51.066Z,6.80
2023-08-26T22:20:17.918Z,7.53
2023-08-26T22:22:45.581Z,8.07
2023-08-26T22:25:12.799Z,7.53
2023-08-26T22:27:41.419Z,7.18
2023-08-26T22:30:09.637Z,8.55
2023-08-26T22:32:37.846Z,8.95
2023-08-26T22:35:05.302Z,9.00
2023-08-26T22:37:35.486Z,8.73
2023-08-26T22:40:05.095Z,8.10
2023-08-26T22:42:33.161Z,7.63
2023-08-26T22:45:00.240Z,6.40
2023-08-26T22:47:29.997Z,6.18
2023-08-26T22:50:00.041Z,7.15
2023-08-26T22:52:26.696Z,7.05
2023-08-26T22:54:53.665Z,6.38
2023-08-26T22:57:21.033Z,6.80
2023-08-26T22:59:47.646Z,6.63
2023-08-26T23:02:14.428Z,6.45
2023-08-26T23:04:41.951Z,6.18
2023-08-26T23:07:09.428Z,7.45
2023-08-26T23:09:36.525Z,7.85
2023-08-26T23:12:04.857Z,7.72
2023-08-26T23:14:31.711Z,7.22
2023-08-26T23:16:58.514Z,7.00
2023-08-26T23:19:25.234Z,7.72
2023-08-26T23:21:57.033Z,6.22
2023-08-26T23:24:24.150Z,6.22
2023-08-26T23:26:52.136Z,5.88
2023-08-26T23:29:19.026Z,5.60
2023-08-26T23:31:45.788Z,5.78
2023-08-26T23:34:18.813Z,6.22
2023-08-26T23:36:47.294Z,6.78
2023-08-26T23:39:14.469Z,7.68
2023-08-26T23:41:42.265Z,7.93
2023-08-26T23:44:09.238Z,8.00
2023-08-26T23:46:36.212Z,8.95
2023-08-26T23:49:03.797Z,8.90
2023-08-26T23:51:30.973Z,7.90
2023-08-26T23:53:58.143Z,7.30
2023-08-26T23:56:24.930Z,7.07
2023-08-26T23:58:52.024Z,6.40
